createdAt,value
2022-12-28T00:02:23.127Z,4.50
2022-12-28T00:04:50.222Z,4.40
2022-12-28T00:07:24.293Z,4.30
2022-12-28T00:09:51.177Z,4.20
2022-12-28T00:12:25.127Z,4.20
2022-12-28T00:14:52.322Z,4.10
2022-12-28T00:17:26.391Z,4.10
2022-12-28T00:19:53.317Z,4.10
2022-12-28T00:22:27.086Z,4.10
2022-12-28T00:24:53.960Z,4.10
2022-12-28T00:27:27.083Z,4.10
2022-12-28T00:30:00.398Z,4.10
2022-12-28T00:32:34.108Z,4.00
2022-12-28T00:35:00.980Z,4.00
2022-12-28T00:37:34.132Z,4.00
2022-12-28T00:40:00.969Z,3.90
2022-12-28T00:42:34.081Z,3.90
2022-12-28T00:45:00.955Z,3.90
2022-12-28T00:47:34.101Z,3.90
2022-12-28T00:50:00.999Z,4.00
2022-12-28T00:52:34.086Z,4.00
2022-12-28T00:55:07.092Z,3.90
2022-12-28T00:57:40.081Z,3.90
2022-12-28T01:00:14.087Z,3.90
2022-12-28T01:02:40.979Z,3.90
2022-12-28T01:05:15.131Z,3.80
2022-12-28T01:07:42.288Z,3.80
2022-12-28T01:10:16.112Z,3.80
2022-12-28T01:12:43.063Z,3.90
2022-12-28T01:15:17.112Z,3.90
2022-12-28T01:17:44.027Z,3.90
2022-12-28T01:20:18.094Z,4.00
2022-12-28T01:22:44.977Z,4.00
2022-12-28T01:25:20.076Z,3.90
2022-12-28T01:27:53.344Z,3.90
2022-12-28T01:30:33.156Z,3.90
2022-12-28T01:33:05.769Z,3.80
2022-12-28T01:35:39.144Z,3.80
2022-12-28T01:38:06.007Z,3.70
2022-12-28T01:40:39.076Z,3.70
2022-12-28T01:43:11.972Z,3.70
2022-12-28T01:45:45.128Z,3.80
2022-12-28T01:48:18.773Z,3.80
2022-12-28T01:50:52.112Z,3.80
2022-12-28T01:53:20.778Z,3.80
2022-12-28T01:55:55.162Z,3.80
2022-12-28T01:58:24.403Z,3.80
2022-12-28T02:00:58.205Z,3.80
2022-12-28T02:03:29.325Z,3.80
2022-12-28T02:06:04.061Z,3.70
2022-12-28T02:08:48.358Z,3.70
2022-12-28T02:11:23.127Z,3.70
2022-12-28T02:13:51.601Z,3.60
2022-12-28T02:16:25.126Z,3.60
2022-12-28T02:18:52.182Z,3.60
2022-12-28T02:21:37.068Z,3.60
2022-12-28T02:24:29.173Z,3.60
2022-12-28T02:27:13.243Z,3.60
2022-12-28T02:29:53.212Z,3.60
2022-12-28T02:32:38.564Z,3.60
2022-12-28T02:35:12.094Z,3.60
2022-12-28T02:37:49.083Z,3.60
2022-12-28T02:40:19.528Z,3.50
2022-12-28T02:42:53.139Z,3.50
2022-12-28T02:46:02.227Z,3.60
2022-12-28T02:49:04.143Z,3.60
2022-12-28T02:52:03.249Z,3.60
2022-12-28T02:55:19.190Z,3.60
2022-12-28T02:57:49.165Z,3.50
2022-12-28T03:00:17.228Z,3.60
2022-12-28T03:02:51.250Z,3.60
2022-12-28T03:06:05.118Z,3.70
2022-12-28T03:08:52.268Z,3.60
2022-12-28T03:11:42.129Z,3.60
2022-12-28T03:14:12.779Z,3.60
2022-12-28T03:17:06.175Z,3.60
2022-12-28T03:19:55.719Z,3.50
2022-12-28T03:22:49.133Z,3.50
2022-12-28T03:25:36.563Z,3.50
2022-12-28T03:28:30.178Z,3.50
2022-12-28T03:31:07.094Z,3.40
2022-12-28T03:33:46.198Z,3.40
2022-12-28T03:36:17.393Z,3.40
2022-12-28T03:39:17.188Z,3.50
2022-12-28T03:42:32.164Z,3.60
2022-12-28T03:45:12.179Z,3.50
2022-12-28T03:47:41.043Z,3.50
2022-12-28T03:50:15.104Z,3.50
2022-12-28T03:52:42.200Z,3.50
2022-12-28T03:55:17.101Z,3.40
2022-12-28T03:57:44.070Z,3.40
2022-12-28T04:00:18.133Z,3.40
2022-12-28T04:02:45.181Z,3.30
2022-12-28T04:05:12.215Z,3.30
2022-12-28T04:07:45.157Z,3.20
2022-12-28T04:10:12.029Z,3.20
2022-12-28T04:12:45.133Z,3.20
2022-12-28T04:15:18.095Z,3.20
2022-12-28T04:17:51.114Z,3.10
2022-12-28T04:20:25.132Z,3.00
2022-12-28T04:22:52.013Z,3.00
2022-12-28T04:25:25.128Z,3.00
2022-12-28T04:27:58.322Z,3.00
2022-12-28T04:30:38.157Z,3.00
2022-12-28T04:33:12.095Z,3.10
2022-12-28T04:35:45.205Z,3.00
2022-12-28T04:38:12.090Z,3.00
2022-12-28T04:40:45.131Z,3.00
2022-12-28T04:43:18.121Z,3.00
2022-12-28T04:45:51.124Z,2.90
2022-12-28T04:48:25.146Z,2.90
2022-12-28T04:50:59.134Z,2.90
2022-12-28T04:53:32.121Z,2.90
2022-12-28T04:56:03.377Z,3.00
2022-12-28T04:58:37.115Z,3.10
2022-12-28T05:01:08.735Z,3.10
2022-12-28T05:03:36.855Z,3.10
2022-12-28T05:06:11.149Z,3.00
2022-12-28T05:08:45.125Z,3.00
2022-12-28T05:11:26.139Z,2.90
2022-12-28T05:13:53.079Z,2.90
2022-12-28T05:16:21.596Z,2.90
2022-12-28T05:18:55.165Z,2.90
2022-12-28T05:21:23.949Z,2.90
2022-12-28T05:23:58.138Z,2.90
2022-12-28T05:26:26.805Z,2.80
2022-12-28T05:29:01.159Z,2.80
2022-12-28T05:31:42.198Z,2.70
2022-12-28T05:34:09.123Z,2.70
2022-12-28T05:36:45.153Z,2.70
2022-12-28T05:39:12.042Z,2.70
2022-12-28T05:41:45.174Z,2.70
2022-12-28T05:44:18.145Z,2.70
2022-12-28T05:46:45.055Z,2.80
2022-12-28T05:49:18.143Z,2.80
2022-12-28T05:51:45.011Z,2.90
2022-12-28T05:54:18.112Z,3.10
2022-12-28T05:56:51.121Z,3.10
2022-12-28T05:59:18.221Z,3.10
2022-12-28T06:01:52.396Z,3.00
2022-12-28T06:04:20.312Z,3.00
2022-12-28T06:06:54.121Z,2.90
2022-12-28T06:09:21.481Z,2.90
2022-12-28T06:11:55.138Z,2.90
2022-12-28T06:14:21.961Z,2.90
2022-12-28T06:16:55.157Z,2.90
2022-12-28T06:19:22.123Z,2.90
2022-12-28T06:21:55.165Z,3.00
2022-12-28T06:24:28.122Z,2.90
2022-12-28T06:27:01.131Z,2.90
2022-12-28T06:29:41.166Z,3.00
2022-12-28T06:32:14.332Z,3.10
2022-12-28T06:34:48.127Z,3.10
2022-12-28T06:37:21.156Z,3.20
2022-12-28T06:39:48.038Z,3.30
2022-12-28T06:42:21.152Z,3.30
2022-12-28T06:44:47.962Z,3.40
2022-12-28T06:47:14.914Z,3.40
2022-12-28T06:49:48.145Z,3.50
2022-12-28T06:52:21.140Z,3.60
2022-12-28T06:54:54.144Z,3.50
2022-12-28T06:57:21.086Z,3.40
2022-12-28T06:59:54.178Z,3.40
2022-12-28T07:02:21.223Z,3.40
2022-12-28T07:04:55.100Z,3.30
2022-12-28T07:07:21.989Z,3.30
2022-12-28T07:09:55.143Z,3.30
2022-12-28T07:12:28.143Z,3.20
2022-12-28T07:15:01.202Z,3.20
2022-12-28T07:17:28.117Z,3.20
2022-12-28T07:20:02.158Z,3.10
2022-12-28T07:22:28.975Z,3.20
2022-12-28T07:25:03.176Z,3.20
2022-12-28T07:27:36.195Z,3.20
2022-12-28T07:30:16.192Z,3.30
2022-12-28T07:32:43.924Z,3.30
2022-12-28T07:35:17.246Z,3.30
2022-12-28T07:37:44.179Z,3.20
2022-12-28T07:40:18.258Z,3.20
2022-12-28T07:42:45.096Z,3.20
2022-12-28T07:45:19.142Z,3.20
2022-12-28T07:47:52.151Z,3.20
2022-12-28T07:50:19.052Z,3.30
2022-12-28T07:52:52.143Z,3.30
2022-12-28T07:55:25.229Z,3.40
2022-12-28T07:57:59.190Z,3.40
2022-12-28T08:00:26.476Z,3.40
2022-12-28T08:03:02.207Z,3.40
2022-12-28T08:05:29.159Z,3.50
2022-12-28T08:08:03.888Z,3.50
2022-12-28T08:10:30.915Z,3.50
2022-12-28T08:13:06.188Z,3.50
2022-12-28T08:15:33.042Z,3.50
2022-12-28T08:17:59.917Z,3.50
2022-12-28T08:20:33.142Z,3.50
2022-12-28T08:22:59.956Z,3.50
2022-12-28T08:25:33.166Z,3.50
2022-12-28T08:28:06.270Z,3.50
2022-12-28T08:30:46.216Z,3.60
2022-12-28T08:33:19.299Z,3.80
2022-12-28T08:35:53.133Z,3.90
2022-12-28T08:38:20.695Z,4.00
2022-12-28T08:41:01.143Z,4.10
2022-12-28T08:43:35.366Z,4.20
2022-12-28T08:46:13.091Z,4.30
2022-12-28T08:48:48.157Z,4.30
2022-12-28T08:51:16.491Z,4.50
2022-12-28T08:53:50.150Z,4.60
2022-12-28T08:56:21.558Z,4.60
2022-12-28T08:58:57.671Z,4.70
2022-12-28T09:01:43.538Z,4.60
2022-12-28T09:04:15.980Z,4.60
2022-12-28T09:06:49.193Z,4.50
2022-12-28T09:09:17.592Z,4.50
2022-12-28T09:11:51.220Z,4.50
2022-12-28T09:14:23.711Z,4.60
2022-12-28T09:16:59.148Z,4.60
2022-12-28T09:19:26.011Z,4.70
2022-12-28T09:22:00.135Z,4.70
2022-12-28T09:24:26.980Z,4.80
2022-12-28T09:27:02.213Z,4.80
2022-12-28T09:29:35.237Z,4.80
2022-12-28T09:32:15.159Z,4.90
2022-12-28T09:34:42.001Z,5.00
2022-12-28T09:37:15.160Z,5.40
2022-12-28T09:39:48.163Z,6.10
2022-12-28T09:42:22.153Z,7.10
2022-12-28T09:44:58.033Z,8.20
2022-12-28T09:47:40.184Z,9.20
2022-12-28T09:50:13.165Z,10.20
2022-12-28T09:52:57.492Z,11.00
2022-12-28T09:55:31.173Z,11.60
2022-12-28T09:58:05.205Z,12.10
2022-12-28T10:00:46.155Z,12.30
2022-12-28T10:03:27.244Z,12.20
2022-12-28T10:05:56.115Z,11.90
2022-12-28T10:08:30.171Z,11.30
2022-12-28T10:11:06.160Z,11.00
2022-12-28T10:13:54.274Z,11.00
2022-12-28T10:16:33.230Z,11.00
2022-12-28T10:19:00.607Z,11.40
2022-12-28T10:21:37.161Z,12.00
2022-12-28T10:24:31.066Z,12.50
2022-12-28T10:27:01.162Z,13.00
2022-12-28T10:29:41.168Z,13.20
2022-12-28T10:32:14.480Z,13.20
2022-12-28T10:35:03.175Z,13.10
2022-12-28T10:37:41.205Z,13.30
2022-12-28T10:40:20.822Z,13.50
2022-12-28T10:42:57.212Z,13.40
2022-12-28T10:45:25.468Z,13.00
2022-12-28T10:48:00.158Z,12.50
2022-12-28T10:50:52.181Z,11.80
2022-12-28T10:53:18.983Z,11.10
2022-12-28T10:55:52.182Z,10.30
2022-12-28T10:58:33.543Z,9.80
2022-12-28T11:01:12.293Z,9.40
2022-12-28T11:03:50.160Z,8.90
2022-12-28T11:06:27.451Z,8.60
2022-12-28T11:09:10.185Z,8.30
2022-12-28T11:11:43.169Z,8.20
2022-12-28T11:14:13.036Z,8.20
2022-12-28T11:16:47.313Z,8.20
2022-12-28T11:19:14.425Z,8.20
2022-12-28T11:21:49.195Z,8.10
2022-12-28T11:24:17.150Z,8.10
2022-12-28T11:26:52.173Z,8.00
2022-12-28T11:29:39.150Z,7.90
2022-12-28T11:32:12.675Z,7.90
2022-12-28T11:34:47.176Z,7.80
2022-12-28T11:37:14.809Z,7.80
2022-12-28T11:39:45.647Z,7.80
2022-12-28T11:42:40.808Z,7.80
2022-12-28T11:45:15.606Z,7.80
2022-12-28T11:47:49.251Z,7.90
2022-12-28T11:50:34.837Z,7.90
2022-12-28T11:53:13.715Z,7.90
2022-12-28T11:55:53.204Z,7.90
2022-12-28T11:58:42.161Z,8.00
2022-12-28T12:01:16.255Z,8.00
2022-12-28T12:03:58.316Z,7.90
2022-12-28T12:06:50.214Z,7.90
2022-12-28T12:09:32.242Z,7.90
2022-12-28T12:12:00.372Z,7.90
2022-12-28T12:14:40.271Z,7.90
2022-12-28T12:17:23.199Z,8.00
2022-12-28T12:19:57.765Z,8.00
2022-12-28T12:22:40.164Z,8.00
2022-12-28T12:25:16.523Z,8.00
2022-12-28T12:27:52.206Z,7.90
2022-12-28T12:30:25.796Z,7.90
2022-12-28T12:32:59.215Z,7.80
2022-12-28T12:35:28.339Z,7.80
2022-12-28T12:38:08.154Z,7.70
2022-12-28T12:40:53.199Z,7.70
2022-12-28T12:43:32.435Z,7.60
2022-12-28T12:46:06.243Z,7.60
2022-12-28T12:48:42.108Z,7.50
2022-12-28T12:51:41.201Z,7.50
2022-12-28T12:54:08.135Z,7.60
2022-12-28T12:56:51.177Z,7.60
2022-12-28T12:59:24.180Z,7.70
2022-12-28T13:01:59.481Z,7.80
2022-12-28T13:04:35.204Z,7.80
2022-12-28T13:07:10.173Z,7.90
2022-12-28T13:09:37.093Z,8.00
2022-12-28T13:12:10.180Z,8.00
2022-12-28T13:14:37.036Z,8.10
2022-12-28T13:17:11.181Z,8.10
2022-12-28T13:19:38.059Z,8.20
2022-12-28T13:22:11.215Z,8.20
2022-12-28T13:24:46.002Z,8.20
2022-12-28T13:27:26.191Z,8.20
2022-12-28T13:30:01.290Z,8.20
2022-12-28T13:32:44.185Z,8.20
2022-12-28T13:35:18.554Z,8.20
2022-12-28T13:38:05.185Z,8.10
2022-12-28T13:40:32.883Z,8.00
2022-12-28T13:43:17.191Z,7.90
2022-12-28T13:45:51.310Z,7.90
2022-12-28T13:48:18.579Z,7.80
2022-12-28T13:50:52.223Z,7.80
2022-12-28T13:53:24.275Z,7.70
2022-12-28T13:56:05.208Z,7.70
2022-12-28T13:58:50.091Z,7.60
2022-12-28T14:01:21.346Z,7.60
2022-12-28T14:03:55.234Z,7.60
2022-12-28T14:06:29.203Z,7.60
2022-12-28T14:09:05.873Z,7.60
2022-12-28T14:11:40.233Z,7.50
2022-12-28T14:14:07.444Z,7.50
2022-12-28T14:16:42.225Z,7.50
2022-12-28T14:19:16.249Z,7.50
2022-12-28T14:21:45.189Z,7.40
2022-12-28T14:24:20.230Z,7.40
2022-12-28T14:26:49.677Z,7.40
2022-12-28T14:29:35.241Z,7.40
2022-12-28T14:32:13.747Z,7.30
2022-12-28T14:34:52.428Z,7.20
2022-12-28T14:37:34.257Z,7.10
2022-12-28T14:40:02.934Z,7.10
2022-12-28T14:42:30.043Z,7.00
2022-12-28T14:45:05.234Z,6.90
2022-12-28T14:47:43.233Z,6.80
2022-12-28T14:50:29.864Z,6.70
2022-12-28T14:53:16.223Z,6.70
2022-12-28T14:56:04.935Z,6.60
2022-12-28T14:58:58.260Z,6.50
2022-12-28T15:01:25.852Z,6.40
2022-12-28T15:04:00.213Z,6.40
2022-12-28T15:06:28.285Z,6.30
2022-12-28T15:09:03.240Z,6.20
2022-12-28T15:11:31.361Z,6.20
2022-12-28T15:14:05.228Z,6.20
2022-12-28T15:16:32.154Z,6.10
2022-12-28T15:19:05.221Z,6.00
2022-12-28T15:21:33.449Z,5.90
2022-12-28T15:24:07.250Z,5.90
2022-12-28T15:26:34.109Z,5.90
2022-12-28T15:29:10.362Z,5.90
2022-12-28T15:31:50.256Z,5.90
2022-12-28T15:34:17.325Z,5.90
2022-12-28T15:36:52.233Z,5.80
2022-12-28T15:39:19.076Z,5.70
2022-12-28T15:41:56.270Z,5.70
2022-12-28T15:44:23.096Z,5.60
2022-12-28T15:46:56.355Z,5.60
2022-12-28T15:49:23.229Z,5.50
2022-12-28T15:51:56.281Z,5.50
2022-12-28T15:54:23.914Z,5.40
2022-12-28T15:57:01.269Z,5.40
2022-12-28T15:59:28.288Z,5.40
2022-12-28T16:02:02.379Z,5.30
2022-12-28T16:04:29.485Z,5.20
2022-12-28T16:07:03.272Z,5.20
2022-12-28T16:09:30.111Z,5.20
2022-12-28T16:11:57.012Z,5.10
2022-12-28T16:14:30.345Z,5.10
2022-12-28T16:16:57.298Z,5.00
2022-12-28T16:19:31.236Z,5.10
2022-12-28T16:22:04.284Z,5.00
2022-12-28T16:24:31.227Z,5.10
2022-12-28T16:27:04.250Z,5.10
2022-12-28T16:29:58.562Z,5.10
2022-12-28T16:32:32.246Z,5.10
2022-12-28T16:34:59.096Z,5.10
2022-12-28T16:37:32.265Z,5.00
2022-12-28T16:40:06.254Z,5.00
2022-12-28T16:42:33.114Z,4.90
2022-12-28T16:45:06.244Z,4.80
2022-12-28T16:47:33.125Z,4.80
2022-12-28T16:50:06.266Z,4.70
2022-12-28T16:52:33.855Z,4.70
2022-12-28T16:55:07.296Z,4.60
2022-12-28T16:57:34.144Z,4.60
2022-12-28T17:00:01.066Z,4.60
2022-12-28T17:02:34.607Z,4.70
2022-12-28T17:05:01.961Z,4.70
2022-12-28T17:07:35.349Z,4.80
2022-12-28T17:10:09.268Z,4.80
2022-12-28T17:12:36.179Z,4.70
2022-12-28T17:15:09.257Z,4.60
2022-12-28T17:17:36.217Z,4.60
2022-12-28T17:20:09.284Z,4.60
2022-12-28T17:22:36.270Z,4.60
2022-12-28T17:25:10.316Z,4.60
2022-12-28T17:27:37.356Z,4.60
2022-12-28T17:30:17.309Z,4.60
2022-12-28T17:32:51.598Z,4.50
2022-12-28T17:35:25.324Z,4.50
2022-12-28T17:37:52.276Z,4.50
2022-12-28T17:40:26.358Z,4.40
2022-12-28T17:42:53.372Z,4.40
2022-12-28T17:45:27.324Z,4.40
2022-12-28T17:47:54.211Z,4.30
2022-12-28T17:50:30.218Z,4.30
2022-12-28T17:52:58.424Z,4.30
2022-12-28T17:55:32.227Z,4.30
2022-12-28T17:57:59.076Z,4.40
2022-12-28T18:00:33.197Z,4.40
2022-12-28T18:03:01.005Z,4.50
2022-12-28T18:05:37.248Z,4.50
2022-12-28T18:08:13.236Z,4.40
2022-12-28T18:10:46.318Z,4.40
2022-12-28T18:13:13.587Z,4.40
2022-12-28T18:15:47.227Z,4.40
2022-12-28T18:18:22.316Z,4.30
2022-12-28T18:21:02.227Z,4.30
2022-12-28T18:23:36.231Z,4.40
2022-12-28T18:26:05.204Z,4.40
2022-12-28T18:29:05.036Z,4.50
2022-12-28T18:31:59.380Z,4.50
2022-12-28T18:34:33.214Z,4.40
2022-12-28T18:37:06.368Z,4.30
2022-12-28T18:39:40.215Z,4.20
2022-12-28T18:42:07.067Z,4.20
2022-12-28T18:44:33.931Z,4.10
2022-12-28T18:47:07.212Z,4.00
2022-12-28T18:49:45.413Z,3.90
2022-12-28T18:52:14.413Z,3.90
2022-12-28T18:54:48.233Z,4.00
2022-12-28T18:57:21.248Z,4.10
2022-12-28T18:59:48.100Z,4.10
2022-12-28T19:02:23.065Z,4.00
2022-12-28T19:04:59.289Z,4.00
2022-12-28T19:07:28.000Z,3.90
2022-12-28T19:10:20.273Z,3.90
2022-12-28T19:12:47.105Z,3.90
2022-12-28T19:15:20.259Z,3.90
2022-12-28T19:17:47.218Z,3.80
2022-12-28T19:20:14.096Z,3.90
2022-12-28T19:22:47.240Z,3.80
2022-12-28T19:25:14.136Z,3.90
2022-12-28T19:27:47.218Z,3.90
2022-12-28T19:30:34.478Z,3.90
2022-12-28T19:33:01.367Z,3.90
2022-12-28T19:35:28.254Z,3.90
2022-12-28T19:38:01.414Z,3.90
2022-12-28T19:40:28.247Z,3.90
2022-12-28T19:43:01.302Z,3.80
2022-12-28T19:45:34.333Z,3.80
2022-12-28T19:48:01.257Z,3.80
2022-12-28T19:50:28.658Z,3.80
2022-12-28T19:53:02.232Z,3.80
2022-12-28T19:55:29.461Z,3.80
2022-12-28T19:58:03.330Z,3.80
2022-12-28T20:00:30.248Z,3.70
2022-12-28T20:03:03.468Z,3.70
2022-12-28T20:05:30.410Z,3.70
2022-12-28T20:08:04.271Z,3.70
2022-12-28T20:10:38.259Z,3.80
2022-12-28T20:13:05.615Z,3.80
2022-12-28T20:15:39.386Z,3.80
2022-12-28T20:18:06.345Z,3.80
2022-12-28T20:21:09.260Z,3.90
2022-12-28T20:23:27.110Z,4.10
2022-12-28T20:26:01.271Z,4.30
2022-12-28T20:28:28.190Z,4.40
2022-12-28T20:31:16.343Z,4.60
2022-12-28T20:33:50.232Z,4.70
2022-12-28T20:36:21.384Z,4.80
2022-12-28T20:38:55.308Z,4.90
2022-12-28T20:41:48.389Z,4.90
2022-12-28T20:44:16.848Z,4.90
2022-12-28T20:46:50.297Z,4.80
2022-12-28T20:49:24.298Z,4.80
2022-12-28T20:51:51.399Z,4.70
2022-12-28T20:54:26.257Z,4.70
2022-12-28T20:56:55.933Z,4.70
2022-12-28T20:59:31.246Z,4.60
2022-12-28T21:01:58.216Z,4.60
2022-12-28T21:04:32.306Z,4.60
2022-12-28T21:07:06.265Z,4.60
2022-12-28T21:09:33.169Z,4.60
2022-12-28T21:12:06.222Z,4.50
2022-12-28T21:14:33.061Z,4.40
2022-12-28T21:17:06.251Z,4.40
2022-12-28T21:19:33.173Z,4.40
2022-12-28T21:22:06.403Z,4.40
2022-12-28T21:24:40.335Z,4.40
2022-12-28T21:27:07.513Z,4.40
2022-12-28T21:29:41.364Z,4.40
2022-12-28T21:32:14.674Z,4.30
2022-12-28T21:34:48.353Z,4.30
2022-12-28T21:37:33.967Z,4.30
2022-12-28T21:40:08.325Z,4.30
2022-12-28T21:42:36.471Z,4.30
2022-12-28T21:45:11.268Z,4.30
2022-12-28T21:47:38.119Z,4.30
2022-12-28T21:50:13.267Z,4.30
2022-12-28T21:52:40.132Z,4.30
2022-12-28T21:55:32.256Z,4.20
2022-12-28T21:57:59.879Z,4.20
2022-12-28T22:00:52.283Z,4.20
2022-12-28T22:03:44.250Z,4.20
2022-12-28T22:06:11.199Z,4.20
2022-12-28T22:09:03.336Z,4.20
2022-12-28T22:11:57.341Z,4.20
2022-12-28T22:14:31.455Z,4.10
2022-12-28T22:16:58.507Z,4.10
2022-12-28T22:19:32.309Z,4.10
2022-12-28T22:21:59.129Z,4.10
2022-12-28T22:24:32.265Z,4.00
2022-12-28T22:26:59.175Z,4.00
2022-12-28T22:29:32.333Z,4.00
2022-12-28T22:32:05.555Z,4.00
2022-12-28T22:34:39.272Z,4.00
2022-12-28T22:37:12.292Z,4.00
2022-12-28T22:39:39.116Z,3.90
2022-12-28T22:42:15.238Z,3.90
2022-12-28T22:44:49.283Z,3.90
2022-12-28T22:47:22.307Z,3.90
2022-12-28T22:49:55.386Z,3.80
2022-12-28T22:52:22.437Z,3.80
2022-12-28T22:54:56.243Z,3.80
2022-12-28T22:57:23.238Z,3.80
2022-12-28T22:59:57.263Z,3.70
2022-12-28T23:02:24.228Z,3.70
2022-12-28T23:04:57.277Z,3.70
2022-12-28T23:07:24.217Z,3.80
2022-12-28T23:09:51.186Z,3.80
2022-12-28T23:12:24.325Z,3.80
2022-12-28T23:15:09.888Z,3.70
2022-12-28T23:17:43.304Z,3.70
2022-12-28T23:20:29.205Z,3.60
2022-12-28T23:23:21.314Z,3.60
2022-12-28T23:26:06.705Z,3.60
2022-12-28T23:28:41.217Z,3.60
2022-12-28T23:31:32.467Z,3.60
2022-12-28T23:34:13.438Z,3.60
2022-12-28T23:36:48.619Z,3.60
2022-12-28T23:39:34.034Z,3.60
2022-12-28T23:42:10.044Z,3.60
2022-12-28T23:45:01.763Z,3.60
2022-12-28T23:47:30.662Z,3.60
2022-12-28T23:50:04.398Z,3.70
2022-12-28T23:52:38.281Z,3.70
2022-12-28T23:55:05.292Z,3.60
2022-12-28T23:57:32.138Z,3.60
